createdAt,value
2019-05-17T00:03:11.124Z,100858.84
2019-05-17T00:08:38.203Z,100846.53
2019-05-17T00:14:01.788Z,100851.52
2019-05-17T00:19:26.361Z,100834.12
2019-05-17T00:24:48.211Z,100836.45
2019-05-17T00:30:17.546Z,100830.05
2019-05-17T00:35:38.869Z,100834.05
2019-05-17T00:41:06.903Z,100825.14
2019-05-17T00:46:29.453Z,100809.31
2019-05-17T00:51:56.606Z,100801.12
2019-05-17T00:57:20.426Z,100788.64
2019-05-17T01:02:46.768Z,100779.45
2019-05-17T01:08:10.575Z,100769.11
2019-05-17T01:13:37.217Z,100772.59
2019-05-17T01:18:59.753Z,100766.29
2019-05-17T01:24:24.790Z,100773.91
2019-05-17T01:29:47.954Z,100771.41
2019-05-17T01:35:12.207Z,100761.02
2019-05-17T01:40:36.958Z,100757.48
2019-05-17T01:46:01.333Z,100741.45
2019-05-17T01:51:26.964Z,100742.55
2019-05-17T01:56:50.151Z,100731.01
2019-05-17T02:02:26.996Z,100721.02
2019-05-17T02:07:51.249Z,100721.56
2019-05-17T02:13:16.446Z,100714.09
2019-05-17T02:18:38.439Z,100717.48
2019-05-17T02:24:02.502Z,100714.80
2019-05-17T02:29:25.070Z,100710.08
2019-05-17T02:34:48.982Z,100701.09
2019-05-17T02:40:14.852Z,100685.92
2019-05-17T02:45:43.299Z,100682.59
2019-05-17T02:51:05.586Z,100678.13
2019-05-17T02:56:32.824Z,100679.91
2019-05-17T03:01:55.944Z,100676.23
2019-05-17T03:07:23.188Z,100676.05
2019-05-17T03:12:46.905Z,100672.20
2019-05-17T03:18:13.430Z,100666.91
2019-05-17T03:23:37.589Z,100661.62
2019-05-17T03:29:03.514Z,100658.94
2019-05-17T03:34:27.465Z,100658.08
2019-05-17T03:39:53.604Z,100649.20
2019-05-17T03:45:18.919Z,100655.31
2019-05-17T03:50:43.904Z,100643.84
2019-05-17T03:56:13.155Z,100647.27
2019-05-17T04:01:34.135Z,100645.29
2019-05-17T04:07:03.143Z,100650.33
2019-05-17T04:12:25.835Z,100642.83
2019-05-17T04:17:52.858Z,100651.36
2019-05-17T04:23:18.598Z,100656.23
2019-05-17T04:28:44.136Z,100655.47
2019-05-17T04:34:07.165Z,100650.05
2019-05-17T04:39:32.615Z,100652.47
2019-05-17T04:44:56.279Z,100648.34
2019-05-17T04:50:23.144Z,100645.48
2019-05-17T04:55:45.401Z,100651.05
2019-05-17T05:01:12.944Z,100654.72
2019-05-17T05:06:33.498Z,100654.72
2019-05-17T05:12:04.724Z,100612.31
2019-05-17T05:17:22.195Z,100612.31
2019-05-17T05:22:46.518Z,100637.11
2019-05-17T05:28:08.245Z,100636.50
2019-05-17T05:33:33.290Z,100632.94
2019-05-17T05:38:55.199Z,100627.44
2019-05-17T05:44:18.503Z,100620.99
2019-05-17T05:49:34.006Z,100627.01
2019-05-17T05:54:57.214Z,100620.91
2019-05-17T06:00:22.114Z,100625.52
2019-05-17T06:05:43.916Z,100622.14
2019-05-17T06:11:07.193Z,100620.13
2019-05-17T06:16:29.010Z,100617.52
2019-05-17T06:21:52.605Z,100614.66
2019-05-17T06:27:08.095Z,100626.02
2019-05-17T06:32:31.879Z,100628.62
2019-05-17T06:37:55.057Z,100626.73
2019-05-17T06:43:16.784Z,100620.91
2019-05-17T06:48:32.595Z,100625.84
2019-05-17T06:53:54.967Z,100624.86
2019-05-17T06:59:17.334Z,100631.33
2019-05-17T07:04:40.070Z,100623.91
2019-05-17T07:10:02.659Z,100610.81
2019-05-17T07:15:24.848Z,100620.73
2019-05-17T07:20:46.564Z,100625.05
2019-05-17T07:26:02.886Z,100619.95
2019-05-17T07:31:24.538Z,100628.31
2019-05-17T07:36:40.038Z,100623.33
2019-05-17T07:42:01.797Z,100634.39
2019-05-17T07:47:23.513Z,100637.08
2019-05-17T07:52:39.816Z,100632.27
2019-05-17T07:58:01.960Z,100638.06
2019-05-17T08:03:17.450Z,100632.48
2019-05-17T08:08:40.972Z,100636.31
2019-05-17T08:14:02.597Z,100630.25
2019-05-17T08:19:20.332Z,100627.55
2019-05-17T08:24:41.447Z,100629.56
2019-05-17T08:30:04.689Z,100629.19
2019-05-17T08:35:20.392Z,100621.30
2019-05-17T08:40:43.719Z,100615.91
2019-05-17T08:46:05.996Z,100618.98
2019-05-17T08:51:30.472Z,100618.19
2019-05-17T08:56:55.268Z,100616.43
2019-05-17T09:02:19.839Z,100614.10
2019-05-17T09:07:44.778Z,100609.50
2019-05-17T09:13:12.303Z,100615.29
2019-05-17T09:18:33.516Z,100618.56
2019-05-17T09:23:50.385Z,100626.25
2019-05-17T09:29:16.274Z,100614.70
2019-05-17T09:34:40.535Z,100615.39
2019-05-17T09:40:03.243Z,100598.44
2019-05-17T09:45:26.112Z,100598.44
2019-05-17T09:50:50.218Z,100616.92
2019-05-17T09:56:13.810Z,100626.78
2019-05-17T10:01:39.431Z,100619.31
2019-05-17T10:07:03.431Z,100614.78
2019-05-17T10:12:26.608Z,100619.20
2019-05-17T10:17:50.713Z,100622.56
2019-05-17T10:23:13.891Z,100628.28
2019-05-17T10:28:36.331Z,100624.58
2019-05-17T10:34:00.908Z,100616.46
2019-05-17T10:39:23.855Z,100614.62
2019-05-17T10:44:47.794Z,100623.09
2019-05-17T10:50:10.944Z,100632.30
2019-05-17T10:55:33.133Z,100632.30
2019-05-17T11:00:54.870Z,100615.26
2019-05-17T11:06:11.129Z,100621.91
2019-05-17T11:11:33.302Z,100628.32
2019-05-17T11:16:55.020Z,100591.45
2019-05-17T11:22:16.850Z,100591.45
2019-05-17T11:27:38.672Z,100631.48
2019-05-17T11:33:02.028Z,100631.48
2019-05-17T11:38:24.457Z,100630.69
2019-05-17T11:43:46.338Z,100632.14
2019-05-17T11:49:09.016Z,100632.84
2019-05-17T11:54:30.864Z,100643.94
2019-05-17T11:59:52.671Z,100651.52
2019-05-17T12:05:14.379Z,100650.78
2019-05-17T12:10:31.212Z,100645.91
2019-05-17T12:15:53.924Z,100642.95
2019-05-17T12:21:16.801Z,100650.36
2019-05-17T12:26:41.513Z,100650.89
2019-05-17T12:32:05.309Z,100643.14
2019-05-17T12:37:29.715Z,100653.12
2019-05-17T12:42:51.449Z,100650.42
2019-05-17T12:48:17.024Z,100641.02
2019-05-17T12:53:38.785Z,100645.36
2019-05-17T12:59:02.201Z,100631.30
2019-05-17T13:04:25.334Z,100635.19
2019-05-17T13:09:49.575Z,100647.96
2019-05-17T13:15:11.751Z,100644.79
2019-05-17T13:20:35.462Z,100646.00
2019-05-17T13:25:57.160Z,100638.98
2019-05-17T13:31:20.468Z,100624.75
2019-05-17T13:36:42.202Z,100630.55
2019-05-17T13:42:05.478Z,100627.17
2019-05-17T13:47:28.339Z,100640.72
2019-05-17T13:52:51.845Z,100633.33
2019-05-17T13:58:15.511Z,100637.18
2019-05-17T14:03:38.166Z,100645.70
2019-05-17T14:09:01.445Z,100645.73
2019-05-17T14:14:24.504Z,100644.48
2019-05-17T14:19:47.809Z,100638.34
2019-05-17T14:25:10.899Z,100640.06
2019-05-17T14:30:35.874Z,100633.01
2019-05-17T14:35:57.586Z,100627.90
2019-05-17T14:41:23.150Z,100622.79
2019-05-17T14:46:45.597Z,100619.56
2019-05-17T14:52:08.862Z,100604.70
2019-05-17T14:57:30.719Z,100592.09
2019-05-17T15:02:54.087Z,100607.98
2019-05-17T15:08:15.831Z,100636.72
2019-05-17T15:13:39.125Z,100639.84
2019-05-17T15:19:00.974Z,100638.70
2019-05-17T15:24:24.150Z,100636.98
2019-05-17T15:29:45.877Z,100632.99
2019-05-17T15:35:10.010Z,100634.45
2019-05-17T15:40:33.869Z,100631.03
2019-05-17T15:45:57.430Z,100625.29
2019-05-17T15:51:19.279Z,100634.50
2019-05-17T15:56:42.515Z,100627.59
2019-05-17T16:05:48.485Z,100623.95
2019-05-17T16:11:11.903Z,100620.48
2019-05-17T16:16:35.151Z,100613.19
2019-05-17T16:21:58.527Z,100614.65
2019-05-17T16:27:22.410Z,100614.28
2019-05-17T16:32:45.746Z,100614.34
2019-05-17T16:38:09.081Z,100608.18
2019-05-17T16:43:32.327Z,100607.41
2019-05-17T16:48:55.592Z,100610.84
2019-05-17T16:54:19.097Z,100621.72
2019-05-17T16:59:42.427Z,100618.07
2019-05-17T17:39:55.818Z,100635.27
2019-05-17T17:47:22.495Z,100638.17
2019-05-17T17:52:46.421Z,100637.75
2019-05-17T17:58:08.472Z,100641.81
2019-05-17T18:03:32.021Z,100653.08
2019-05-17T18:08:53.737Z,100663.48
2019-05-17T18:14:15.812Z,100650.53
2019-05-17T18:19:37.922Z,100649.59
2019-05-17T18:24:59.967Z,100654.05
2019-05-17T18:30:24.727Z,100645.23
2019-05-17T18:35:51.392Z,100659.09
2019-05-17T18:41:15.794Z,100664.55
2019-05-17T18:46:39.393Z,100667.56
2019-05-17T18:52:01.391Z,100672.38
2019-05-17T18:57:25.242Z,100693.06
2019-05-17T19:02:46.962Z,100688.17
2019-05-17T19:08:10.183Z,100702.69
2019-05-17T19:13:27.018Z,100711.07
2019-05-17T19:18:52.644Z,100706.78
2019-05-17T19:24:14.844Z,100712.19
2019-05-17T19:29:36.593Z,100710.02
2019-05-17T19:34:55.405Z,100709.30
2019-05-17T19:40:21.476Z,100708.44
2019-05-17T19:45:45.681Z,100706.81
2019-05-17T19:51:09.889Z,100708.39
2019-05-17T19:56:31.599Z,100702.41
2019-05-17T20:01:55.868Z,100713.36
2019-05-17T20:07:17.664Z,100720.12
2019-05-17T20:12:39.665Z,100728.27
2019-05-17T20:18:01.531Z,100723.98
2019-05-17T20:23:23.353Z,100723.98
2019-05-17T20:28:46.691Z,100736.68
2019-05-17T20:34:10.133Z,100736.17
2019-05-17T20:39:33.530Z,100726.81
2019-05-17T20:44:55.368Z,100725.37
2019-05-17T20:50:19.662Z,100724.86
2019-05-17T20:55:41.468Z,100728.28
2019-05-17T21:01:04.805Z,100729.08
2019-05-17T21:06:26.581Z,100733.17
2019-05-17T21:11:49.881Z,100732.66
2019-05-17T21:17:05.378Z,100735.63
2019-05-17T21:22:28.755Z,100737.48
2019-05-17T21:27:44.323Z,100736.09
2019-05-17T21:33:07.569Z,100733.61
2019-05-17T21:38:23.068Z,100733.16
2019-05-17T21:43:45.997Z,100726.39
2019-05-17T21:49:01.527Z,100698.80
2019-05-17T21:54:24.911Z,100724.12
2019-05-17T21:59:46.667Z,100727.08
2019-05-17T22:05:11.446Z,100727.25
2019-05-17T22:10:33.356Z,100728.96
2019-05-17T22:15:56.882Z,100732.70
2019-05-17T22:21:12.657Z,100734.54
2019-05-17T22:26:36.494Z,100719.00
2019-05-17T22:31:58.321Z,100734.78
2019-05-17T22:37:21.614Z,100734.78
2019-05-17T22:42:44.919Z,100748.39
2019-05-17T22:48:06.647Z,100753.77
2019-05-17T22:53:29.938Z,100771.81
2019-05-17T22:58:51.718Z,100755.83
2019-05-17T23:04:15.169Z,100751.42
2019-05-17T23:09:30.762Z,100754.20
2019-05-17T23:14:54.331Z,100739.35
2019-05-17T23:20:12.463Z,100734.64
2019-05-17T23:25:35.703Z,100733.23
2019-05-17T23:30:57.446Z,100734.17
2019-05-17T23:36:20.935Z,100729.73
2019-05-17T23:41:36.466Z,100731.72
2019-05-17T23:47:07.074Z,100734.25
2019-05-17T23:52:23.699Z,100727.16
2019-05-17T23:57:47.127Z,100732.53
